F V Viking Storm — CZ7652 — position and weather

sailwx.info

Track history (hours):
 
Tides and Currents Weather Stations Pressure Air Temp Water Temp Dewpoint Dewpoint Depression Visibility Wind Speed Wind Dir Waves Ship Positions

F V Viking Storm

Last reported at 2018-Jun-22 18:34 UTC. Time now 2018-Jun-22 20:32 UTC.
Position N 49°09' W 126°59'.

Length 31 m; draft 4 m.

Type: Fishing. MMSI: 316005448.

Date/timePositionNaut miles runAvg speedWind from/ knotsBaromVisibWave heightAir tempDewpointWater temp
2018-Jun-22 18:34N 49°09' W 126°59'9 0.3
2018-Jun-21 10:54N 49°16' W 126°50'4 8.5
2018-Jun-21 10:29N 49°15' W 126°45'4 8.5
2018-Jun-21 10:00N 49°14' W 126°39'4 8.6
2018-Jun-21 09:30N 49°12' W 126°33'4 8.6
2018-Jun-21 09:00N 49°10' W 126°27'4 8.7
2018-Jun-21 08:30N 49°09' W 126°21'8 8.5
2018-Jun-21 07:37N 49°06' W 126°10'2 8.4
2018-Jun-21 07:26N 49°05' W 126°08'4 8.1
2018-Jun-21 07:00N 49°04' W 126°03'4 8.1
2018-Jun-21 06:30N 49°02' W 125°58'4 7.8
2018-Jun-21 06:00N 49°00' W 125°52'4 7.6
2018-Jun-21 05:30N 48°59' W 125°47'4 8.0
2018-Jun-21 05:00N 48°57' W 125°42'4 7.7
2018-Jun-21 04:30N 48°56' W 125°36'3 6.6
2018-Jun-21 04:00N 48°55' W 125°31'2 3.3
2018-Jun-21 03:30N 48°57' W 125°33'0 0.0
2018-Jun-21 03:00N 48°57' W 125°33'0 0.0
2018-Jun-21 02:30N 48°57' W 125°33'0 0.0
2018-Jun-21 02:00N 48°57' W 125°33'0 0.0
2018-Jun-21 01:30N 48°57' W 125°33'0 0.1
2018-Jun-21 01:00N 48°57' W 125°33'0 0.0
2018-Jun-21 00:30N 48°57' W 125°33'0 0.0
2018-Jun-21 00:00N 48°57' W 125°33'0 0.0
2018-Jun-20 23:30N 48°57' W 125°33'0 0.0
2018-Jun-20 23:00N 48°57' W 125°33'0 0.0
2018-Jun-20 22:30N 48°57' W 125°33'0 0.0
2018-Jun-20 22:00N 48°57' W 125°33'2 3.7
2018-Jun-20 21:30N 48°55' W 125°31'3 6.8
2018-Jun-20 21:00N 48°52' W 125°31'4 7.5
2018-Jun-20 20:30N 48°48' W 125°29'4 7.4
2018-Jun-20 20:00N 48°45' W 125°27'4 7.7
2018-Jun-20 19:30N 48°41' W 125°26'4 7.5
2018-Jun-20 18:59N 48°37' W 125°24'4 7.5
2018-Jun-20 18:29N 48°34' W 125°23'4 7.4
2018-Jun-20 17:55N 48°30' W 125°25'4 8.4
2018-Jun-20 17:29N 48°27' W 125°28'19 8.2
2018-Jun-20 15:14N 48°13' W 125°47'3 3.1
2018-Jun-20 14:26N 48°15' W 125°44'1 0.9
2018-Jun-20 13:07N 48°15' W 125°43'4 2.0
2018-Jun-20 11:19N 48°16' W 125°37'1 0.7
2018-Jun-20 09:52N 48°16' W 125°36'1 0.4
2018-Jun-20 08:26N 48°16' W 125°36'0 0.5
2018-Jun-20 07:45N 48°16' W 125°36'0 0.7
2018-Jun-20 07:30N 48°17' W 125°36'0 0.7
2018-Jun-20 07:00N 48°17' W 125°36'0 0.8
2018-Jun-20 06:30N 48°17' W 125°37'1 0.9
2018-Jun-20 05:56N 48°18' W 125°37'5 4.1
2018-Jun-20 04:40N 48°23' W 125°37'1 7.6
2018-Jun-20 04:29N 48°24' W 125°36'8 5.9
2018-Jun-20 03:09N 48°31' W 125°30'1 7.0
2018-Jun-20 03:00N 48°31' W 125°29'4 5.4
2018-Jun-20 02:15N 48°31' W 125°23'2 7.4
2018-Jun-20 02:00N 48°31' W 125°20'4 6.3
2018-Jun-20 01:24N 48°29' W 125°15'3 5.0
2018-Jun-20 00:50N 48°31' W 125°18'1 2.0
2018-Jun-20 00:17N 48°31' W 125°19'2 5.5
2018-Jun-19 23:59N 48°30' W 125°17'3 5.9
2018-Jun-19 23:27N 48°29' W 125°22'1 2.6
2018-Jun-19 22:57N 48°30' W 125°24'1 3.2
2018-Jun-19 22:30N 48°28' W 125°23'3 2.0
2018-Jun-19 21:06N 48°29' W 125°19'1 3.1
2018-Jun-19 20:56N 48°29' W 125°18'2 3.1
2018-Jun-19 20:17N 48°29' W 125°15'1 3.1
2018-Jun-19 19:52N 48°29' W 125°13'0 0.3
2018-Jun-19 19:18N 48°28' W 125°13'1 2.2
2018-Jun-19 18:57N 48°29' W 125°14'3 6.1
2018-Jun-19 18:26N 48°29' W 125°19'0 0.9
2018-Jun-19 17:56N 48°29' W 125°19'1 2.4
2018-Jun-19 17:29N 48°29' W 125°18'5 2.7
2018-Jun-19 15:38N 48°27' W 125°10'2 5.5
2018-Jun-19 15:16N 48°27' W 125°13'1 3.7
2018-Jun-19 14:59N 48°27' W 125°12'3 5.7
2018-Jun-19 14:25N 48°28' W 125°17'1 2.0
2018-Jun-19 13:55N 48°27' W 125°15'2 5.2
2018-Jun-19 13:27N 48°29' W 125°18'9 6.1
2018-Jun-19 12:00N 48°37' W 125°23'4 8.2
2018-Jun-19 11:30N 48°41' W 125°25'4 8.1
2018-Jun-19 11:00N 48°45' W 125°27'4 7.7
2018-Jun-19 10:30N 48°49' W 125°29'4 7.9
2018-Jun-19 10:00N 48°52' W 125°31'4 7.3
2018-Jun-19 09:30N 48°56' W 125°32'1 2.3
2018-Jun-19 09:00N 48°57' W 125°33'0 0.0
2018-Jun-19 08:30N 48°57' W 125°33'0 0.0
2018-Jun-19 08:00N 48°57' W 125°33'0 0.0
2018-Jun-19 07:30N 48°57' W 125°33'0 0.0
2018-Jun-19 07:00N 48°57' W 125°33'0 0.0
2018-Jun-19 06:30N 48°57' W 125°33'0 0.0
2018-Jun-19 06:00N 48°57' W 125°33'0 0.0
2018-Jun-19 05:30N 48°57' W 125°33'0 0.0
2018-Jun-19 05:00N 48°57' W 125°33'0 0.0
2018-Jun-19 04:30N 48°57' W 125°33'0 0.0
2018-Jun-19 04:00N 48°57' W 125°33'0 0.0
2018-Jun-19 03:30N 48°57' W 125°33'0 0.0
2018-Jun-19 03:00N 48°57' W 125°33'0 0.0
2018-Jun-19 02:30N 48°57' W 125°33'0 0.0
2018-Jun-19 02:00N 48°57' W 125°33'0 0.0
2018-Jun-19 01:30N 48°57' W 125°33'0 0.0
2018-Jun-19 01:00N 48°57' W 125°33'0 0.0
2018-Jun-19 00:30N 48°57' W 125°33'0 0.0
2018-Jun-19 00:00N 48°57' W 125°33'0 0.1
2018-Jun-18 23:30N 48°57' W 125°33'0 0.0
2018-Jun-18 23:00N 48°57' W 125°33'0 0.0
2018-Jun-18 22:30N 48°57' W 125°33'0 0.0
2018-Jun-18 22:00N 48°57' W 125°33'0 0.1
2018-Jun-18 21:30N 48°57' W 125°33'0 0.0
2018-Jun-18 21:00N 48°57' W 125°33'0 0.0
2018-Jun-18 20:30N 48°57' W 125°33'0 0.0
2018-Jun-18 20:00N 48°57' W 125°33'0 0.0
2018-Jun-18 19:30N 48°57' W 125°33'0 0.0
2018-Jun-18 19:00N 48°57' W 125°33'0 0.0
2018-Jun-18 18:30N 48°57' W 125°33'0 0.0
2018-Jun-18 18:00N 48°57' W 125°33'0 0.0
2018-Jun-18 17:30N 48°57' W 125°33'0 0.0
2018-Jun-18 17:00N 48°57' W 125°33'0 0.0
2018-Jun-18 16:30N 48°57' W 125°33'0 0.0
2018-Jun-18 16:00N 48°57' W 125°33'0 0.0
2018-Jun-18 15:30N 48°57' W 125°33'0 0.0
2018-Jun-18 15:00N 48°57' W 125°33'0 0.0
2018-Jun-18 14:30N 48°57' W 125°33'0 0.0
2018-Jun-18 14:00N 48°57' W 125°33'0 0.0
2018-Jun-18 13:30N 48°57' W 125°33'0 0.0
2018-Jun-18 13:00N 48°57' W 125°33'0 0.0
2018-Jun-18 12:30N 48°57' W 125°33'0 0.0
2018-Jun-18 12:00N 48°57' W 125°33'0 0.0
2018-Jun-18 11:30N 48°57' W 125°33'0 0.0
2018-Jun-18 11:00N 48°57' W 125°33'0 0.0
2018-Jun-18 10:30N 48°57' W 125°33'0 0.0
2018-Jun-18 10:00N 48°57' W 125°33'0 0.0
2018-Jun-18 09:30N 48°57' W 125°33'0 0.0
2018-Jun-18 09:00N 48°57' W 125°33'0 0.0
2018-Jun-18 08:30N 48°57' W 125°33'0 0.0
2018-Jun-18 08:00N 48°57' W 125°33'0 0.0
2018-Jun-18 07:30N 48°57' W 125°33'0 0.0
2018-Jun-18 07:00N 48°57' W 125°33'0 0.0
2018-Jun-18 06:30N 48°57' W 125°33'0 0.0
2018-Jun-18 06:00N 48°57' W 125°33'0 0.0
2018-Jun-18 05:30N 48°57' W 125°33'0 0.0
2018-Jun-18 05:00N 48°57' W 125°33'0 0.0
2018-Jun-18 04:30N 48°57' W 125°33'0 0.0
2018-Jun-18 04:00N 48°57' W 125°33'0 0.0
2018-Jun-18 03:30N 48°57' W 125°33'0 0.0
2018-Jun-18 03:00N 48°57' W 125°33'0 0.0
2018-Jun-18 02:30N 48°57' W 125°33'0 0.0
2018-Jun-18 02:00N 48°57' W 125°33'0 0.0
2018-Jun-18 01:30N 48°57' W 125°33'0 0.0
2018-Jun-18 01:00N 48°57' W 125°33'0 0.0
2018-Jun-18 00:30N 48°57' W 125°33'0 0.0
2018-Jun-18 00:00N 48°57' W 125°33'0 0.0
2018-Jun-17 23:30N 48°57' W 125°33'0 0.0
2018-Jun-17 23:00N 48°57' W 125°33'0 0.0
2018-Jun-17 22:30N 48°57' W 125°33'0 0.0
2018-Jun-17 22:00N 48°57' W 125°33'0 0.0
2018-Jun-17 21:30N 48°57' W 125°33'0 0.1
2018-Jun-17 21:00N 48°57' W 125°33'0 0.0
2018-Jun-17 20:30N 48°57' W 125°33'0 0.0
2018-Jun-17 20:00N 48°57' W 125°33'0 0.0
2018-Jun-17 19:30N 48°57' W 125°33'0 0.0
2018-Jun-17 19:00N 48°57' W 125°33'0 0.2
2018-Jun-17 18:30N 48°57' W 125°33'0 0.0
2018-Jun-17 18:00N 48°57' W 125°33'0 0.1
2018-Jun-17 17:30N 48°57' W 125°33'0 0.0
2018-Jun-17 17:00N 48°57' W 125°33'0 0.0
2018-Jun-17 16:30N 48°57' W 125°33'0 0.0
2018-Jun-17 16:00N 48°57' W 125°33'0 0.0
2018-Jun-17 15:30N 48°57' W 125°33'0 0.0
2018-Jun-17 15:00N 48°57' W 125°33'0 0.0
2018-Jun-17 14:30N 48°57' W 125°33'0 0.0
2018-Jun-17 14:00N 48°57' W 125°33'0 0.0
2018-Jun-17 13:30N 48°57' W 125°33'0 0.0
2018-Jun-17 13:00N 48°57' W 125°33'0 0.0
2018-Jun-17 12:30N 48°57' W 125°33'0 0.0
2018-Jun-17 12:00N 48°57' W 125°33'0 0.0
2018-Jun-17 11:30N 48°57' W 125°33'0 0.0
2018-Jun-17 11:00N 48°57' W 125°33'0 0.0
2018-Jun-17 10:30N 48°57' W 125°33'0 0.0
2018-Jun-17 10:00N 48°57' W 125°33'2 4.7
2018-Jun-17 09:30N 48°54' W 125°32'4 7.4
2018-Jun-17 09:00N 48°51' W 125°30'4 7.4
2018-Jun-17 08:30N 48°47' W 125°28'4 7.2
2018-Jun-17 08:00N 48°44' W 125°27'4 7.2
2018-Jun-17 07:30N 48°40' W 125°25'3 6.7
2018-Jun-17 07:00N 48°37' W 125°24'3 6.6
2018-Jun-17 06:30N 48°34' W 125°23'3 5.1
2018-Jun-17 06:00N 48°32' W 125°22'2 4.5
2018-Jun-17 05:30N 48°29' W 125°21'1 1.2
2018-Jun-17 05:00N 48°29' W 125°20'0 0.8
2018-Jun-17 04:30N 48°28' W 125°20'1 1.4
2018-Jun-17 04:00N 48°29' W 125°20'1 1.8
2018-Jun-17 03:30N 48°30' W 125°19'0 0.3
2018-Jun-17 03:00N 48°30' W 125°20'2 3.1
2018-Jun-17 02:30N 48°30' W 125°22'2 3.1
2018-Jun-17 02:00N 48°30' W 125°24'1 2.7
2018-Jun-17 01:30N 48°29' W 125°26'2 3.1
2018-Jun-17 01:00N 48°28' W 125°28'1 2.9
2018-Jun-17 00:30N 48°28' W 125°30'2 4.9
2018-Jun-17 00:00N 48°29' W 125°26'4 7.1
2018-Jun-16 23:30N 48°29' W 125°21'2 4.9
2018-Jun-16 23:00N 48°28' W 125°18'1 2.8
2018-Jun-16 22:29N 48°30' W 125°16'3 5.4
2018-Jun-16 22:00N 48°29' W 125°12'3 5.4
2018-Jun-16 21:30N 48°29' W 125°16'3 5.8
2018-Jun-16 21:00N 48°30' W 125°20'3 5.4
2018-Jun-16 20:30N 48°29' W 125°24'1 2.8
2018-Jun-16 20:00N 48°28' W 125°26'1 1.1
2018-Jun-16 19:30N 48°29' W 125°26'2 3.1
2018-Jun-16 19:00N 48°29' W 125°24'1 2.5
2018-Jun-16 18:29N 48°30' W 125°22'2 3.0
2018-Jun-16 17:59N 48°30' W 125°19'2 3.2
2018-Jun-16 17:30N 48°30' W 125°17'1 2.1
2018-Jun-16 17:00N 48°30' W 125°19'1 2.3
2018-Jun-16 16:30N 48°30' W 125°20'1 2.3
2018-Jun-16 16:00N 48°30' W 125°22'1 2.0
2018-Jun-16 15:30N 48°30' W 125°24'3 6.1
2018-Jun-16 15:00N 48°30' W 125°19'3 5.5
2018-Jun-16 14:30N 48°29' W 125°15'2 3.7
2018-Jun-16 13:58N 48°31' W 125°16'4 8.0
2018-Jun-16 13:25N 48°35' W 125°19'3 8.2
2018-Jun-16 12:59N 48°38' W 125°21'4 7.4
2018-Jun-16 12:30N 48°41' W 125°24'4 7.2
2018-Jun-16 12:00N 48°45' W 125°26'4 7.6
2018-Jun-16 11:30N 48°48' W 125°28'4 7.1
2018-Jun-16 11:00N 48°51' W 125°30'3 6.6
2018-Jun-16 10:30N 48°54' W 125°32'2 4.7
2018-Jun-16 10:00N 48°57' W 125°33'0 0.0
2018-Jun-16 09:30N 48°57' W 125°33'0 0.0
2018-Jun-16 09:00N 48°57' W 125°33'0 0.0
2018-Jun-16 08:30N 48°57' W 125°33'0 0.0
2018-Jun-16 08:00N 48°57' W 125°33'0 0.0
2018-Jun-16 07:30N 48°57' W 125°33'0 0.0
2018-Jun-16 07:00N 48°57' W 125°33'0 0.0
2018-Jun-16 06:30N 48°57' W 125°33'0 0.0
2018-Jun-16 06:00N 48°57' W 125°33'0 0.0
2018-Jun-16 05:30N 48°57' W 125°33'0 0.0
2018-Jun-16 05:00N 48°57' W 125°33'0 0.0
2018-Jun-16 04:30N 48°57' W 125°33'1 1.1
2018-Jun-16 04:00N 48°57' W 125°33'0 0.0
2018-Jun-16 03:30N 48°57' W 125°33'0 0.0
2018-Jun-16 03:00N 48°57' W 125°33'0 0.0
2018-Jun-16 02:30N 48°57' W 125°33'0 0.0
2018-Jun-16 02:00N 48°57' W 125°33'0 0.0
2018-Jun-16 01:30N 48°57' W 125°33'0 0.0
2018-Jun-16 01:00N 48°57' W 125°33'0 0.0
2018-Jun-16 00:30N 48°57' W 125°33'0 0.0
2018-Jun-16 00:00N 48°57' W 125°33'0 0.0
2018-Jun-15 23:30N 48°57' W 125°33'0 0.0
2018-Jun-15 23:00N 48°57' W 125°33'0 0.0
2018-Jun-15 22:30N 48°57' W 125°33'0 0.0
2018-Jun-15 22:00N 48°57' W 125°33'1 1.1
2018-Jun-15 21:30N 48°57' W 125°33'1 1.2
2018-Jun-15 21:00N 48°56' W 125°32'0 0.0
2018-Jun-15 20:30N 48°56' W 125°32'0 0.0
2018-Jun-15 20:00N 48°56' W 125°32'1 1.2
2018-Jun-15 19:30N 48°57' W 125°33'0 0.0
2018-Jun-15 19:00N 48°57' W 125°33'0 0.0
2018-Jun-15 18:30N 48°57' W 125°33'0 0.0
2018-Jun-15 18:00N 48°57' W 125°33'0 0.0
2018-Jun-15 17:30N 48°57' W 125°33'0 0.0
2018-Jun-15 17:00N 48°57' W 125°33'0 0.0
2018-Jun-15 16:30N 48°57' W 125°33'0 0.0
2018-Jun-15 16:00N 48°57' W 125°33'0 0.0
2018-Jun-15 15:30N 48°57' W 125°33'0 0.0
2018-Jun-15 15:00N 48°57' W 125°33'0 0.0
2018-Jun-15 14:30N 48°57' W 125°33'0 0.0
2018-Jun-15 14:00N 48°57' W 125°33'0 0.0
2018-Jun-15 13:30N 48°57' W 125°33'0 0.0
2018-Jun-15 13:00N 48°57' W 125°33'0 0.0
2018-Jun-15 12:30N 48°57' W 125°33'0 0.0
2018-Jun-15 12:00N 48°57' W 125°33'0 0.0
2018-Jun-15 11:30N 48°57' W 125°33'0 0.0
2018-Jun-15 11:00N 48°57' W 125°33'0 0.0
2018-Jun-15 10:30N 48°57' W 125°33'0 0.0
2018-Jun-15 10:00N 48°57' W 125°33'0 0.0
2018-Jun-15 09:30N 48°57' W 125°33'0 0.0
2018-Jun-15 09:00N 48°57' W 125°33'0 0.0
2018-Jun-15 08:30N 48°57' W 125°33'0 0.0
2018-Jun-15 08:00N 48°57' W 125°33'0 0.0
2018-Jun-15 07:30N 48°57' W 125°33'0 0.0
2018-Jun-15 07:00N 48°57' W 125°33'0 0.0
2018-Jun-15 06:30N 48°57' W 125°33'0 0.0
2018-Jun-15 06:00N 48°57' W 125°33'0 0.0
2018-Jun-15 05:30N 48°57' W 125°33'0 0.0
2018-Jun-15 05:00N 48°57' W 125°33'0 0.2
2018-Jun-15 04:30N 48°57' W 125°33'0 0.0
2018-Jun-15 04:00N 48°57' W 125°33'0 0.0
2018-Jun-15 03:30N 48°57' W 125°33'0 0.0
2018-Jun-15 03:00N 48°57' W 125°33'0 0.0
2018-Jun-15 02:30N 48°57' W 125°33'0 0.0
2018-Jun-15 02:00N 48°57' W 125°33'0 0.0
2018-Jun-15 01:30N 48°57' W 125°33'0 0.0
2018-Jun-15 01:00N 48°57' W 125°33'0 0.0
2018-Jun-15 00:30N 48°57' W 125°33'0 0.0
2018-Jun-15 00:00N 48°57' W 125°33'0 0.0
2018-Jun-14 23:30N 48°57' W 125°33'0 0.0
2018-Jun-14 23:00N 48°57' W 125°33'0 0.0
2018-Jun-14 22:30N 48°57' W 125°33'0 0.0
2018-Jun-14 22:00N 48°57' W 125°33'0 0.0
2018-Jun-14 21:30N 48°57' W 125°33'0 0.0
2018-Jun-14 21:00N 48°57' W 125°33'0 0.0
2018-Jun-14 20:30N 48°57' W 125°33'0 0.0
2018-Jun-14 20:00N 48°57' W 125°33'0 0.0
2018-Jun-14 19:30N 48°57' W 125°33'0 0.0
2018-Jun-14 19:00N 48°57' W 125°33'0 0.0
2018-Jun-14 18:30N 48°57' W 125°33'0 0.0
2018-Jun-14 18:00N 48°57' W 125°33'0 0.0
2018-Jun-14 17:30N 48°57' W 125°33'0 0.5
2018-Jun-14 17:00N 48°56' W 125°32'0 0.5
2018-Jun-14 16:30N 48°57' W 125°33'0 0.0
2018-Jun-14 16:00N 48°57' W 125°33'0 0.3
2018-Jun-14 15:30N 48°57' W 125°33'0 0.1
2018-Jun-14 15:00N 48°57' W 125°33'0 0.0
2018-Jun-14 14:30N 48°57' W 125°33'0 0.0
2018-Jun-14 14:00N 48°57' W 125°33'0 0.0
2018-Jun-14 13:30N 48°57' W 125°33'0 0.0
2018-Jun-14 13:00N 48°57' W 125°33'1 1.9
2018-Jun-14 12:30N 48°56' W 125°32'2 4.4
2018-Jun-14 12:00N 48°56' W 125°35'4 7.7
2018-Jun-14 11:30N 48°57' W 125°40'4 7.4
2018-Jun-14 11:00N 48°59' W 125°45'4 7.5
2018-Jun-14 10:30N 49°01' W 125°50'4 7.5
2018-Jun-14 10:00N 49°02' W 125°55'4 7.6
2018-Jun-14 09:30N 49°04' W 126°01'4 7.8
2018-Jun-14 09:00N 49°06' W 126°06'4 7.8
2018-Jun-14 08:30N 49°08' W 126°11'5 7.8
2018-Jun-14 07:49N 49°11' W 126°18'3 7.7
2018-Jun-14 07:26N 49°12' W 126°22'3 7.8
2018-Jun-14 07:00N 49°13' W 126°27'4 7.7
2018-Jun-14 06:30N 49°15' W 126°32'4 7.9
2018-Jun-14 06:00N 49°17' W 126°37'4 7.9
2018-Jun-14 05:30N 49°19' W 126°42'4 7.8
2018-Jun-14 05:00N 49°21' W 126°47'4 7.7
2018-Jun-14 04:26N 49°24' W 126°53'6 0.4
2018-Jun-13 11:50N 49°18' W 126°52'2 7.0
2018-Jun-13 11:29N 49°17' W 126°49'4 7.0
2018-Jun-13 10:58N 49°15' W 126°44'4 7.7
2018-Jun-13 10:30N 49°14' W 126°39'4 8.0
2018-Jun-13 09:59N 49°12' W 126°33'4 8.1
2018-Jun-13 09:30N 49°11' W 126°27'4 8.2
2018-Jun-13 08:58N 49°09' W 126°21'6 8.2
2018-Jun-13 08:11N 49°06' W 126°12'2 8.0
2018-Jun-13 07:56N 49°06' W 126°09'4 8.3
2018-Jun-13 07:29N 49°04' W 126°04'4 8.3
2018-Jun-13 07:00N 49°02' W 125°59'4 8.2
2018-Jun-13 06:30N 49°01' W 125°53'4 8.5
2018-Jun-13 06:00N 48°59' W 125°47'4 8.7
2018-Jun-13 05:30N 48°57' W 125°41'4 8.6
2018-Jun-13 05:00N 48°56' W 125°35'2 3.6
2018-Jun-13 04:30N 48°57' W 125°33'0 0.3
2018-Jun-13 04:00N 48°57' W 125°33'0 0.0
2018-Jun-13 03:30N 48°57' W 125°33'0 0.0
2018-Jun-13 03:00N 48°57' W 125°33'0 0.1
2018-Jun-13 02:30N 48°57' W 125°33'0 0.0
2018-Jun-13 02:00N 48°57' W 125°33'0 0.0
2018-Jun-13 01:30N 48°57' W 125°33'0 0.0
2018-Jun-13 01:00N 48°57' W 125°33'0 0.0
2018-Jun-13 00:30N 48°57' W 125°33'0 0.0
2018-Jun-13 00:00N 48°57' W 125°33'0 0.0
2018-Jun-12 23:30N 48°57' W 125°33'0 0.0
2018-Jun-12 23:00N 48°57' W 125°33'0 0.0
2018-Jun-12 22:30N 48°57' W 125°33'0 0.0
2018-Jun-12 22:00N 48°57' W 125°33'0 0.0
2018-Jun-12 21:30N 48°57' W 125°33'0 0.0
2018-Jun-12 21:00N 48°57' W 125°33'0 0.0
2018-Jun-12 20:30N 48°57' W 125°33'0 0.0
2018-Jun-12 20:00N 48°57' W 125°33'0 0.0
2018-Jun-12 19:30N 48°57' W 125°33'0 0.0
2018-Jun-12 19:00N 48°57' W 125°33'  
Track history (hours):
 
Tides and Currents Weather Stations Pressure Air Temp Water Temp Dewpoint Dewpoint Depression Visibility Wind Speed Wind Dir Waves Ship Positions

F V Viking Storm

Last reported at 2018-Jun-22 18:34 UTC. Time now 2018-Jun-22 20:32 UTC.
Position N 49°09' W 126°59'.

Length 31 m; draft 4 m.

Type: Fishing. MMSI: 316005448.

Date/timePositionNaut miles runAvg speedWind from/ knotsBaromVisibWave heightAir tempDewpointWater temp
2018-Jun-22 18:34N 49°09' W 126°59'9 0.3
2018-Jun-21 10:54N 49°16' W 126°50'4 8.5
2018-Jun-21 10:29N 49°15' W 126°45'4 8.5
2018-Jun-21 10:00N 49°14' W 126°39'4 8.6
2018-Jun-21 09:30N 49°12' W 126°33'4 8.6
2018-Jun-21 09:00N 49°10' W 126°27'4 8.7
2018-Jun-21 08:30N 49°09' W 126°21'8 8.5
2018-Jun-21 07:37N 49°06' W 126°10'2 8.4
2018-Jun-21 07:26N 49°05' W 126°08'4 8.1
2018-Jun-21 07:00N 49°04' W 126°03'4 8.1
2018-Jun-21 06:30N 49°02' W 125°58'4 7.8
2018-Jun-21 06:00N 49°00' W 125°52'4 7.6
2018-Jun-21 05:30N 48°59' W 125°47'4 8.0
2018-Jun-21 05:00N 48°57' W 125°42'4 7.7
2018-Jun-21 04:30N 48°56' W 125°36'3 6.6
2018-Jun-21 04:00N 48°55' W 125°31'2 3.3
2018-Jun-21 03:30N 48°57' W 125°33'0 0.0
2018-Jun-21 03:00N 48°57' W 125°33'0 0.0
2018-Jun-21 02:30N 48°57' W 125°33'0 0.0
2018-Jun-21 02:00N 48°57' W 125°33'0 0.0
2018-Jun-21 01:30N 48°57' W 125°33'0 0.1
2018-Jun-21 01:00N 48°57' W 125°33'0 0.0
2018-Jun-21 00:30N 48°57' W 125°33'0 0.0
2018-Jun-21 00:00N 48°57' W 125°33'0 0.0
2018-Jun-20 23:30N 48°57' W 125°33'0 0.0
2018-Jun-20 23:00N 48°57' W 125°33'0 0.0
2018-Jun-20 22:30N 48°57' W 125°33'0 0.0
2018-Jun-20 22:00N 48°57' W 125°33'2 3.7
2018-Jun-20 21:30N 48°55' W 125°31'3 6.8
2018-Jun-20 21:00N 48°52' W 125°31'4 7.5
2018-Jun-20 20:30N 48°48' W 125°29'4 7.4
2018-Jun-20 20:00N 48°45' W 125°27'4 7.7
2018-Jun-20 19:30N 48°41' W 125°26'4 7.5
2018-Jun-20 18:59N 48°37' W 125°24'4 7.5
2018-Jun-20 18:29N 48°34' W 125°23'4 7.4
2018-Jun-20 17:55N 48°30' W 125°25'4 8.4
2018-Jun-20 17:29N 48°27' W 125°28'19 8.2
2018-Jun-20 15:14N 48°13' W 125°47'3 3.1
2018-Jun-20 14:26N 48°15' W 125°44'1 0.9
2018-Jun-20 13:07N 48°15' W 125°43'4 2.0
2018-Jun-20 11:19N 48°16' W 125°37'1 0.7
2018-Jun-20 09:52N 48°16' W 125°36'1 0.4
2018-Jun-20 08:26N 48°16' W 125°36'0 0.5
2018-Jun-20 07:45N 48°16' W 125°36'0 0.7
2018-Jun-20 07:30N 48°17' W 125°36'0 0.7
2018-Jun-20 07:00N 48°17' W 125°36'0 0.8
2018-Jun-20 06:30N 48°17' W 125°37'1 0.9
2018-Jun-20 05:56N 48°18' W 125°37'5 4.1
2018-Jun-20 04:40N 48°23' W 125°37'1 7.6
2018-Jun-20 04:29N 48°24' W 125°36'8 5.9
2018-Jun-20 03:09N 48°31' W 125°30'1 7.0
2018-Jun-20 03:00N 48°31' W 125°29'4 5.4
2018-Jun-20 02:15N 48°31' W 125°23'2 7.4
2018-Jun-20 02:00N 48°31' W 125°20'4 6.3
2018-Jun-20 01:24N 48°29' W 125°15'3 5.0
2018-Jun-20 00:50N 48°31' W 125°18'1 2.0
2018-Jun-20 00:17N 48°31' W 125°19'2 5.5
2018-Jun-19 23:59N 48°30' W 125°17'3 5.9
2018-Jun-19 23:27N 48°29' W 125°22'1 2.6
2018-Jun-19 22:57N 48°30' W 125°24'1 3.2
2018-Jun-19 22:30N 48°28' W 125°23'3 2.0
2018-Jun-19 21:06N 48°29' W 125°19'1 3.1
2018-Jun-19 20:56N 48°29' W 125°18'2 3.1
2018-Jun-19 20:17N 48°29' W 125°15'1 3.1
2018-Jun-19 19:52N 48°29' W 125°13'0 0.3
2018-Jun-19 19:18N 48°28' W 125°13'1 2.2
2018-Jun-19 18:57N 48°29' W 125°14'3 6.1
2018-Jun-19 18:26N 48°29' W 125°19'0 0.9
2018-Jun-19 17:56N 48°29' W 125°19'1 2.4
2018-Jun-19 17:29N 48°29' W 125°18'5 2.7
2018-Jun-19 15:38N 48°27' W 125°10'2 5.5
2018-Jun-19 15:16N 48°27' W 125°13'1 3.7
2018-Jun-19 14:59N 48°27' W 125°12'3 5.7
2018-Jun-19 14:25N 48°28' W 125°17'1 2.0
2018-Jun-19 13:55N 48°27' W 125°15'2 5.2
2018-Jun-19 13:27N 48°29' W 125°18'9 6.1
2018-Jun-19 12:00N 48°37' W 125°23'4 8.2
2018-Jun-19 11:30N 48°41' W 125°25'4 8.1
2018-Jun-19 11:00N 48°45' W 125°27'4 7.7
2018-Jun-19 10:30N 48°49' W 125°29'4 7.9
2018-Jun-19 10:00N 48°52' W 125°31'4 7.3
2018-Jun-19 09:30N 48°56' W 125°32'1 2.3
2018-Jun-19 09:00N 48°57' W 125°33'0 0.0
2018-Jun-19 08:30N 48°57' W 125°33'0 0.0
2018-Jun-19 08:00N 48°57' W 125°33'0 0.0
2018-Jun-19 07:30N 48°57' W 125°33'0 0.0
2018-Jun-19 07:00N 48°57' W 125°33'0 0.0
2018-Jun-19 06:30N 48°57' W 125°33'0 0.0
2018-Jun-19 06:00N 48°57' W 125°33'0 0.0
2018-Jun-19 05:30N 48°57' W 125°33'0 0.0
2018-Jun-19 05:00N 48°57' W 125°33'0 0.0
2018-Jun-19 04:30N 48°57' W 125°33'0 0.0
2018-Jun-19 04:00N 48°57' W 125°33'0 0.0
2018-Jun-19 03:30N 48°57' W 125°33'0 0.0
2018-Jun-19 03:00N 48°57' W 125°33'0 0.0
2018-Jun-19 02:30N 48°57' W 125°33'0 0.0
2018-Jun-19 02:00N 48°57' W 125°33'0 0.0
2018-Jun-19 01:30N 48°57' W 125°33'0 0.0
2018-Jun-19 01:00N 48°57' W 125°33'0 0.0
2018-Jun-19 00:30N 48°57' W 125°33'0 0.0
2018-Jun-19 00:00N 48°57' W 125°33'0 0.1
2018-Jun-18 23:30N 48°57' W 125°33'0 0.0
2018-Jun-18 23:00N 48°57' W 125°33'0 0.0
2018-Jun-18 22:30N 48°57' W 125°33'0 0.0
2018-Jun-18 22:00N 48°57' W 125°33'0 0.1
2018-Jun-18 21:30N 48°57' W 125°33'0 0.0
2018-Jun-18 21:00N 48°57' W 125°33'0 0.0
2018-Jun-18 20:30N 48°57' W 125°33'0 0.0
2018-Jun-18 20:00N 48°57' W 125°33'0 0.0
2018-Jun-18 19:30N 48°57' W 125°33'0 0.0
2018-Jun-18 19:00N 48°57' W 125°33'0 0.0
2018-Jun-18 18:30N 48°57' W 125°33'0 0.0
2018-Jun-18 18:00N 48°57' W 125°33'0 0.0
2018-Jun-18 17:30N 48°57' W 125°33'0 0.0
2018-Jun-18 17:00N 48°57' W 125°33'0 0.0
2018-Jun-18 16:30N 48°57' W 125°33'0 0.0
2018-Jun-18 16:00N 48°57' W 125°33'0 0.0
2018-Jun-18 15:30N 48°57' W 125°33'0 0.0
2018-Jun-18 15:00N 48°57' W 125°33'0 0.0
2018-Jun-18 14:30N 48°57' W 125°33'0 0.0
2018-Jun-18 14:00N 48°57' W 125°33'0 0.0
2018-Jun-18 13:30N 48°57' W 125°33'0 0.0
2018-Jun-18 13:00N 48°57' W 125°33'0 0.0
2018-Jun-18 12:30N 48°57' W 125°33'0 0.0
2018-Jun-18 12:00N 48°57' W 125°33'0 0.0
2018-Jun-18 11:30N 48°57' W 125°33'0 0.0
2018-Jun-18 11:00N 48°57' W 125°33'0 0.0
2018-Jun-18 10:30N 48°57' W 125°33'0 0.0
2018-Jun-18 10:00N 48°57' W 125°33'0 0.0
2018-Jun-18 09:30N 48°57' W 125°33'0 0.0
2018-Jun-18 09:00N 48°57' W 125°33'0 0.0
2018-Jun-18 08:30N 48°57' W 125°33'0 0.0
2018-Jun-18 08:00N 48°57' W 125°33'0 0.0
2018-Jun-18 07:30N 48°57' W 125°33'0 0.0
2018-Jun-18 07:00N 48°57' W 125°33'0 0.0
2018-Jun-18 06:30N 48°57' W 125°33'0 0.0
2018-Jun-18 06:00N 48°57' W 125°33'0 0.0
2018-Jun-18 05:30N 48°57' W 125°33'0 0.0
2018-Jun-18 05:00N 48°57' W 125°33'0 0.0
2018-Jun-18 04:30N 48°57' W 125°33'0 0.0
2018-Jun-18 04:00N 48°57' W 125°33'0 0.0
2018-Jun-18 03:30N 48°57' W 125°33'0 0.0
2018-Jun-18 03:00N 48°57' W 125°33'0 0.0
2018-Jun-18 02:30N 48°57' W 125°33'0 0.0
2018-Jun-18 02:00N 48°57' W 125°33'0 0.0
2018-Jun-18 01:30N 48°57' W 125°33'0 0.0
2018-Jun-18 01:00N 48°57' W 125°33'0 0.0
2018-Jun-18 00:30N 48°57' W 125°33'0 0.0
2018-Jun-18 00:00N 48°57' W 125°33'0 0.0
2018-Jun-17 23:30N 48°57' W 125°33'0 0.0
2018-Jun-17 23:00N 48°57' W 125°33'0 0.0
2018-Jun-17 22:30N 48°57' W 125°33'0 0.0
2018-Jun-17 22:00N 48°57' W 125°33'0 0.0
2018-Jun-17 21:30N 48°57' W 125°33'0 0.1
2018-Jun-17 21:00N 48°57' W 125°33'0 0.0
2018-Jun-17 20:30N 48°57' W 125°33'0 0.0
2018-Jun-17 20:00N 48°57' W 125°33'0 0.0
2018-Jun-17 19:30N 48°57' W 125°33'0 0.0
2018-Jun-17 19:00N 48°57' W 125°33'0 0.2
2018-Jun-17 18:30N 48°57' W 125°33'0 0.0
2018-Jun-17 18:00N 48°57' W 125°33'0 0.1
2018-Jun-17 17:30N 48°57' W 125°33'0 0.0
2018-Jun-17 17:00N 48°57' W 125°33'0 0.0
2018-Jun-17 16:30N 48°57' W 125°33'0 0.0
2018-Jun-17 16:00N 48°57' W 125°33'0 0.0
2018-Jun-17 15:30N 48°57' W 125°33'0 0.0
2018-Jun-17 15:00N 48°57' W 125°33'0 0.0
2018-Jun-17 14:30N 48°57' W 125°33'0 0.0
2018-Jun-17 14:00N 48°57' W 125°33'0 0.0
2018-Jun-17 13:30N 48°57' W 125°33'0 0.0
2018-Jun-17 13:00N 48°57' W 125°33'0 0.0
2018-Jun-17 12:30N 48°57' W 125°33'0 0.0
2018-Jun-17 12:00N 48°57' W 125°33'0 0.0
2018-Jun-17 11:30N 48°57' W 125°33'0 0.0
2018-Jun-17 11:00N 48°57' W 125°33'0 0.0
2018-Jun-17 10:30N 48°57' W 125°33'0 0.0
2018-Jun-17 10:00N 48°57' W 125°33'2 4.7
2018-Jun-17 09:30N 48°54' W 125°32'4 7.4
2018-Jun-17 09:00N 48°51' W 125°30'4 7.4
2018-Jun-17 08:30N 48°47' W 125°28'4 7.2
2018-Jun-17 08:00N 48°44' W 125°27'4 7.2
2018-Jun-17 07:30N 48°40' W 125°25'3 6.7
2018-Jun-17 07:00N 48°37' W 125°24'3 6.6
2018-Jun-17 06:30N 48°34' W 125°23'3 5.1
2018-Jun-17 06:00N 48°32' W 125°22'2 4.5
2018-Jun-17 05:30N 48°29' W 125°21'1 1.2
2018-Jun-17 05:00N 48°29' W 125°20'0 0.8
2018-Jun-17 04:30N 48°28' W 125°20'1 1.4
2018-Jun-17 04:00N 48°29' W 125°20'1 1.8
2018-Jun-17 03:30N 48°30' W 125°19'0 0.3
2018-Jun-17 03:00N 48°30' W 125°20'2 3.1
2018-Jun-17 02:30N 48°30' W 125°22'2 3.1
2018-Jun-17 02:00N 48°30' W 125°24'1 2.7
2018-Jun-17 01:30N 48°29' W 125°26'2 3.1
2018-Jun-17 01:00N 48°28' W 125°28'1 2.9
2018-Jun-17 00:30N 48°28' W 125°30'2 4.9
2018-Jun-17 00:00N 48°29' W 125°26'4 7.1
2018-Jun-16 23:30N 48°29' W 125°21'2 4.9
2018-Jun-16 23:00N 48°28' W 125°18'1 2.8
2018-Jun-16 22:29N 48°30' W 125°16'3 5.4
2018-Jun-16 22:00N 48°29' W 125°12'3 5.4
2018-Jun-16 21:30N 48°29' W 125°16'3 5.8
2018-Jun-16 21:00N 48°30' W 125°20'3 5.4
2018-Jun-16 20:30N 48°29' W 125°24'1 2.8
2018-Jun-16 20:00N 48°28' W 125°26'1 1.1
2018-Jun-16 19:30N 48°29' W 125°26'2 3.1
2018-Jun-16 19:00N 48°29' W 125°24'1 2.5
2018-Jun-16 18:29N 48°30' W 125°22'2 3.0
2018-Jun-16 17:59N 48°30' W 125°19'2 3.2
2018-Jun-16 17:30N 48°30' W 125°17'1 2.1
2018-Jun-16 17:00N 48°30' W 125°19'1 2.3
2018-Jun-16 16:30N 48°30' W 125°20'1 2.3
2018-Jun-16 16:00N 48°30' W 125°22'1 2.0
2018-Jun-16 15:30N 48°30' W 125°24'3 6.1
2018-Jun-16 15:00N 48°30' W 125°19'3 5.5
2018-Jun-16 14:30N 48°29' W 125°15'2 3.7
2018-Jun-16 13:58N 48°31' W 125°16'4 8.0
2018-Jun-16 13:25N 48°35' W 125°19'3 8.2
2018-Jun-16 12:59N 48°38' W 125°21'4 7.4
2018-Jun-16 12:30N 48°41' W 125°24'4 7.2
2018-Jun-16 12:00N 48°45' W 125°26'4 7.6
2018-Jun-16 11:30N 48°48' W 125°28'4 7.1
2018-Jun-16 11:00N 48°51' W 125°30'3 6.6
2018-Jun-16 10:30N 48°54' W 125°32'2 4.7
2018-Jun-16 10:00N 48°57' W 125°33'0 0.0
2018-Jun-16 09:30N 48°57' W 125°33'0 0.0
2018-Jun-16 09:00N 48°57' W 125°33'0 0.0
2018-Jun-16 08:30N 48°57' W 125°33'0 0.0
2018-Jun-16 08:00N 48°57' W 125°33'0 0.0
2018-Jun-16 07:30N 48°57' W 125°33'0 0.0
2018-Jun-16 07:00N 48°57' W 125°33'0 0.0
2018-Jun-16 06:30N 48°57' W 125°33'0 0.0
2018-Jun-16 06:00N 48°57' W 125°33'0 0.0
2018-Jun-16 05:30N 48°57' W 125°33'0 0.0
2018-Jun-16 05:00N 48°57' W 125°33'0 0.0
2018-Jun-16 04:30N 48°57' W 125°33'1 1.1
2018-Jun-16 04:00N 48°57' W 125°33'0 0.0
2018-Jun-16 03:30N 48°57' W 125°33'0 0.0
2018-Jun-16 03:00N 48°57' W 125°33'0 0.0
2018-Jun-16 02:30N 48°57' W 125°33'0 0.0
2018-Jun-16 02:00N 48°57' W 125°33'0 0.0
2018-Jun-16 01:30N 48°57' W 125°33'0 0.0
2018-Jun-16 01:00N 48°57' W 125°33'0 0.0
2018-Jun-16 00:30N 48°57' W 125°33'0 0.0
2018-Jun-16 00:00N 48°57' W 125°33'0 0.0
2018-Jun-15 23:30N 48°57' W 125°33'0 0.0
2018-Jun-15 23:00N 48°57' W 125°33'0 0.0
2018-Jun-15 22:30N 48°57' W 125°33'0 0.0
2018-Jun-15 22:00N 48°57' W 125°33'1 1.1
2018-Jun-15 21:30N 48°57' W 125°33'1 1.2
2018-Jun-15 21:00N 48°56' W 125°32'0 0.0
2018-Jun-15 20:30N 48°56' W 125°32'0 0.0
2018-Jun-15 20:00N 48°56' W 125°32'1 1.2
2018-Jun-15 19:30N 48°57' W 125°33'0 0.0
2018-Jun-15 19:00N 48°57' W 125°33'0 0.0
2018-Jun-15 18:30N 48°57' W 125°33'0 0.0
2018-Jun-15 18:00N 48°57' W 125°33'0 0.0
2018-Jun-15 17:30N 48°57' W 125°33'0 0.0
2018-Jun-15 17:00N 48°57' W 125°33'0 0.0
2018-Jun-15 16:30N 48°57' W 125°33'0 0.0
2018-Jun-15 16:00N 48°57' W 125°33'0 0.0
2018-Jun-15 15:30N 48°57' W 125°33'0 0.0
2018-Jun-15 15:00N 48°57' W 125°33'0 0.0
2018-Jun-15 14:30N 48°57' W 125°33'0 0.0
2018-Jun-15 14:00N 48°57' W 125°33'0 0.0
2018-Jun-15 13:30N 48°57' W 125°33'0 0.0
2018-Jun-15 13:00N 48°57' W 125°33'0 0.0
2018-Jun-15 12:30N 48°57' W 125°33'0 0.0
2018-Jun-15 12:00N 48°57' W 125°33'0 0.0
2018-Jun-15 11:30N 48°57' W 125°33'0 0.0
2018-Jun-15 11:00N 48°57' W 125°33'0 0.0
2018-Jun-15 10:30N 48°57' W 125°33'0 0.0
2018-Jun-15 10:00N 48°57' W 125°33'0 0.0
2018-Jun-15 09:30N 48°57' W 125°33'0 0.0
2018-Jun-15 09:00N 48°57' W 125°33'0 0.0
2018-Jun-15 08:30N 48°57' W 125°33'0 0.0
2018-Jun-15 08:00N 48°57' W 125°33'0 0.0
2018-Jun-15 07:30N 48°57' W 125°33'0 0.0
2018-Jun-15 07:00N 48°57' W 125°33'0 0.0
2018-Jun-15 06:30N 48°57' W 125°33'0 0.0
2018-Jun-15 06:00N 48°57' W 125°33'0 0.0
2018-Jun-15 05:30N 48°57' W 125°33'0 0.0
2018-Jun-15 05:00N 48°57' W 125°33'0 0.2
2018-Jun-15 04:30N 48°57' W 125°33'0 0.0
2018-Jun-15 04:00N 48°57' W 125°33'0 0.0
2018-Jun-15 03:30N 48°57' W 125°33'0 0.0
2018-Jun-15 03:00N 48°57' W 125°33'0 0.0
2018-Jun-15 02:30N 48°57' W 125°33'0 0.0
2018-Jun-15 02:00N 48°57' W 125°33'0 0.0
2018-Jun-15 01:30N 48°57' W 125°33'0 0.0
2018-Jun-15 01:00N 48°57' W 125°33'0 0.0
2018-Jun-15 00:30N 48°57' W 125°33'0 0.0
2018-Jun-15 00:00N 48°57' W 125°33'0 0.0
2018-Jun-14 23:30N 48°57' W 125°33'0 0.0
2018-Jun-14 23:00N 48°57' W 125°33'0 0.0
2018-Jun-14 22:30N 48°57' W 125°33'0 0.0
2018-Jun-14 22:00N 48°57' W 125°33'0 0.0
2018-Jun-14 21:30N 48°57' W 125°33'0 0.0
2018-Jun-14 21:00N 48°57' W 125°33'0 0.0
2018-Jun-14 20:30N 48°57' W 125°33'0 0.0
2018-Jun-14 20:00N 48°57' W 125°33'0 0.0
2018-Jun-14 19:30N 48°57' W 125°33'0 0.0
2018-Jun-14 19:00N 48°57' W 125°33'0 0.0
2018-Jun-14 18:30N 48°57' W 125°33'0 0.0
2018-Jun-14 18:00N 48°57' W 125°33'0 0.0
2018-Jun-14 17:30N 48°57' W 125°33'0 0.5
2018-Jun-14 17:00N 48°56' W 125°32'0 0.5
2018-Jun-14 16:30N 48°57' W 125°33'0 0.0
2018-Jun-14 16:00N 48°57' W 125°33'0 0.3
2018-Jun-14 15:30N 48°57' W 125°33'0 0.1
2018-Jun-14 15:00N 48°57' W 125°33'0 0.0
2018-Jun-14 14:30N 48°57' W 125°33'0 0.0
2018-Jun-14 14:00N 48°57' W 125°33'0 0.0
2018-Jun-14 13:30N 48°57' W 125°33'0 0.0
2018-Jun-14 13:00N 48°57' W 125°33'1 1.9
2018-Jun-14 12:30N 48°56' W 125°32'2 4.4
2018-Jun-14 12:00N 48°56' W 125°35'4 7.7
2018-Jun-14 11:30N 48°57' W 125°40'4 7.4
2018-Jun-14 11:00N 48°59' W 125°45'4 7.5
2018-Jun-14 10:30N 49°01' W 125°50'4 7.5
2018-Jun-14 10:00N 49°02' W 125°55'4 7.6
2018-Jun-14 09:30N 49°04' W 126°01'4 7.8
2018-Jun-14 09:00N 49°06' W 126°06'4 7.8
2018-Jun-14 08:30N 49°08' W 126°11'5 7.8
2018-Jun-14 07:49N 49°11' W 126°18'3 7.7
2018-Jun-14 07:26N 49°12' W 126°22'3 7.8
2018-Jun-14 07:00N 49°13' W 126°27'4 7.7
2018-Jun-14 06:30N 49°15' W 126°32'4 7.9
2018-Jun-14 06:00N 49°17' W 126°37'4 7.9
2018-Jun-14 05:30N 49°19' W 126°42'4 7.8
2018-Jun-14 05:00N 49°21' W 126°47'4 7.7
2018-Jun-14 04:26N 49°24' W 126°53'6 0.4
2018-Jun-13 11:50N 49°18' W 126°52'2 7.0
2018-Jun-13 11:29N 49°17' W 126°49'4 7.0
2018-Jun-13 10:58N 49°15' W 126°44'4 7.7
2018-Jun-13 10:30N 49°14' W 126°39'4 8.0
2018-Jun-13 09:59N 49°12' W 126°33'4 8.1
2018-Jun-13 09:30N 49°11' W 126°27'4 8.2
2018-Jun-13 08:58N 49°09' W 126°21'6 8.2
2018-Jun-13 08:11N 49°06' W 126°12'2 8.0
2018-Jun-13 07:56N 49°06' W 126°09'4 8.3
2018-Jun-13 07:29N 49°04' W 126°04'4 8.3
2018-Jun-13 07:00N 49°02' W 125°59'4 8.2
2018-Jun-13 06:30N 49°01' W 125°53'4 8.5
2018-Jun-13 06:00N 48°59' W 125°47'4 8.7
2018-Jun-13 05:30N 48°57' W 125°41'4 8.6
2018-Jun-13 05:00N 48°56' W 125°35'2 3.6
2018-Jun-13 04:30N 48°57' W 125°33'0 0.3
2018-Jun-13 04:00N 48°57' W 125°33'0 0.0
2018-Jun-13 03:30N 48°57' W 125°33'0 0.0
2018-Jun-13 03:00N 48°57' W 125°33'0 0.1
2018-Jun-13 02:30N 48°57' W 125°33'0 0.0
2018-Jun-13 02:00N 48°57' W 125°33'0 0.0
2018-Jun-13 01:30N 48°57' W 125°33'0 0.0
2018-Jun-13 01:00N 48°57' W 125°33'0 0.0
2018-Jun-13 00:30N 48°57' W 125°33'0 0.0
2018-Jun-13 00:00N 48°57' W 125°33'0 0.0
2018-Jun-12 23:30N 48°57' W 125°33'0 0.0
2018-Jun-12 23:00N 48°57' W 125°33'0 0.0
2018-Jun-12 22:30N 48°57' W 125°33'0 0.0
2018-Jun-12 22:00N 48°57' W 125°33'0 0.0
2018-Jun-12 21:30N 48°57' W 125°33'0 0.0
2018-Jun-12 21:00N 48°57' W 125°33'0 0.0
2018-Jun-12 20:30N 48°57' W 125°33'0 0.0
2018-Jun-12 20:00N 48°57' W 125°33'0 0.0
2018-Jun-12 19:30N 48°57' W 125°33'0 0.0
2018-Jun-12 19:00N 48°57' W 125°33'  

Dump ship's entire track history